Time;durP1;ratioP1;P1;durP2;ratioP2;P2;SDS_P1;SDS_P2;PMS_P1;PMS_P2;Temp;Humidity;BMP_temperature;BMP_pressure;BME280_temperature;BME280_humidity;BME280_pressure;Samples;Min_cycle;Max_cycle;Signal;HPM_P1;HPM_P2
2023/06/11 00:01:54;;;;;;;13.40;9.80;;;;;;;17.02;79.95;101131.72;106942;1250;75239;-49
2023/06/11 00:04:25;;;;;;;12.90;9.90;;;;;;;16.97;80.15;101129.07;107244;1250;61250;-54
2023/06/11 00:06:53;;;;;;;13.40;10.10;;;;;;;16.92;80.48;101136.86;107237;1250;71480;-53
2023/06/11 00:09:22;;;;;;;11.10;10.00;;;;;;;16.87;80.60;101136.29;107896;1251;61190;-54
2023/06/11 00:11:49;;;;;;;12.10;10.10;;;;;;;16.83;80.74;101137.31;106697;1254;61217;-55
2023/06/11 00:14:15;;;;;;;14.20;10.40;;;;;;;16.79;80.99;101134.98;107442;1250;75933;-57
2023/06/11 00:16:43;;;;;;;14.70;11.80;;;;;;;16.76;81.09;101141.20;106742;1254;61292;-53
2023/06/11 00:19:11;;;;;;;12.00;10.80;;;;;;;16.70;81.37;101136.33;107094;1250;73406;-55
2023/06/11 00:21:43;;;;;;;12.40;10.40;;;;;;;16.66;81.60;101140.81;106940;1251;62430;-52
2023/06/11 00:24:14;;;;;;;11.70;10.60;;;;;;;16.63;81.78;101141.80;107545;1250;61212;-53
2023/06/11 00:26:42;;;;;;;13.30;10.30;;;;;;;16.59;82.02;101144.27;107530;1251;75072;-50
2023/06/11 00:29:09;;;;;;;12.60;9.90;;;;;;;16.55;82.12;101145.95;107346;1251;71036;-56
2023/06/11 00:31:35;;;;;;;13.10;10.20;;;;;;;16.49;82.34;101141.95;107174;1250;72725;-51
2023/06/11 00:34:02;;;;;;;11.90;10.30;;;;;;;16.48;82.50;101142.02;106831;1254;60749;-58
2023/06/11 00:36:29;;;;;;;14.90;11.00;;;;;;;16.44;82.53;101140.79;106822;1254;62994;-55
2023/06/11 00:38:56;;;;;;;13.20;10.70;;;;;;;16.39;82.91;101139.04;107072;1250;73731;-58
2023/06/11 00:41:25;;;;;;;13.30;9.90;;;;;;;16.35;83.07;101135.69;106883;1251;70320;-57
2023/06/11 00:43:54;;;;;;;11.30;9.60;;;;;;;16.31;83.24;101136.89;107502;1253;73228;-55
2023/06/11 00:46:21;;;;;;;12.30;10.40;;;;;;;16.27;83.34;101136.70;106795;1254;62641;-56
2023/06/11 00:48:49;;;;;;;12.40;10.10;;;;;;;16.23;83.59;101136.31;107527;1252;61630;-56
2023/06/11 00:51:20;;;;;;;11.70;10.20;;;;;;;16.20;83.91;101138.65;107074;1250;73546;-54
2023/06/11 00:53:47;;;;;;;12.20;9.90;;;;;;;16.16;84.00;101137.58;106596;1253;70078;-51
2023/06/11 00:56:17;;;;;;;14.00;9.60;;;;;;;16.12;84.20;101138.99;107243;1251;61359;-56
2023/06/11 00:58:45;;;;;;;13.80;10.00;;;;;;;16.09;84.25;101141.26;106938;1250;62124;-59
2023/06/11 01:01:21;;;;;;;10.40;9.40;;;;;;;16.05;84.29;101138.02;106956;1251;61144;-53
2023/06/11 01:03:52;;;;;;;13.50;9.60;;;;;;;16.00;84.25;101136.69;107369;1253;75294;-56
2023/06/11 01:06:21;;;;;;;12.50;9.50;;;;;;;15.95;84.38;101139.60;109339;1250;71048;-50
2023/06/11 01:08:57;;;;;;;11.40;9.20;;;;;;;15.92;84.47;101135.59;107545;1250;72429;-53
2023/06/11 01:11:27;;;;;;;11.10;8.90;;;;;;;15.87;84.48;101133.63;106459;1253;633531;-51
2023/06/11 01:13:54;;;;;;;11.60;9.00;;;;;;;15.85;84.63;101136.14;108148;1250;61193;-53
2023/06/11 01:16:42;;;;;;;13.30;8.50;;;;;;;15.81;84.86;101135.16;107591;1251;73397;-55
2023/06/11 01:19:31;;;;;;;10.80;8.20;;;;;;;15.79;84.83;101137.21;106632;1253;72410;-56
2023/06/11 01:22:16;;;;;;;11.50;8.60;;;;;;;15.76;84.83;101134.23;107824;1250;73318;-56
2023/06/11 01:25:20;;;;;;;10.30;8.20;;;;;;;15.73;84.78;101136.90;107307;1250;62082;-54
2023/06/11 01:28:10;;;;;;;11.80;8.00;;;;;;;15.69;84.74;101137.71;107213;1251;61288;-53
2023/06/11 01:30:49;;;;;;;11.10;7.50;;;;;;;15.67;84.52;101137.16;107424;1251;73149;-54
2023/06/11 01:33:24;;;;;;;12.40;8.20;;;;;;;15.64;84.40;101138.83;106907;1250;70012;-57
2023/06/11 01:35:52;;;;;;;10.70;7.80;;;;;;;15.59;84.44;101142.60;107010;1252;73232;-58
2023/06/11 01:38:21;;;;;;;12.00;7.20;;;;;;;15.56;84.45;101143.61;107310;1254;61445;-52
2023/06/11 01:40:48;;;;;;;9.90;6.90;;;;;;;15.52;84.49;101144.23;107919;1250;61318;-57
2023/06/11 01:43:14;;;;;;;9.60;7.10;;;;;;;15.48;84.50;101144.54;106860;1253;74704;-55
2023/06/11 01:45:41;;;;;;;9.20;6.80;;;;;;;15.45;84.55;101147.85;106994;1250;61861;-56
2023/06/11 01:48:07;;;;;;;8.80;6.40;;;;;;;15.40;84.50;101148.93;107930;1252;73243;-54
2023/06/11 01:50:34;;;;;;;8.50;6.30;;;;;;;15.37;84.51;101144.39;106852;1250;61603;-51
2023/06/11 01:53:01;;;;;;;9.40;6.90;;;;;;;15.34;84.28;101146.27;106990;1251;63597;-55
2023/06/11 01:55:27;;;;;;;9.80;6.80;;;;;;;15.31;84.40;101149.49;106976;1251;74808;-52
2023/06/11 01:57:54;;;;;;;9.50;6.30;;;;;;;15.28;84.36;101150.45;107294;1250;61267;-54
2023/06/11 02:00:20;;;;;;;9.30;6.00;;;;;;;15.25;84.35;101146.94;107549;1250;61758;-52
2023/06/11 02:02:48;;;;;;;9.00;6.00;;;;;;;15.23;84.42;101146.23;107272;1250;62038;-54
2023/06/11 02:05:15;;;;;;;10.00;6.10;;;;;;;15.20;84.51;101149.20;107287;1251;61255;-52
2023/06/11 02:07:41;;;;;;;9.30;6.00;;;;;;;15.17;84.25;101149.23;107209;1251;60807;-56
2023/06/11 02:10:08;;;;;;;11.60;5.80;;;;;;;15.14;84.26;101153.31;107034;1251;71252;-56
2023/06/11 02:12:35;;;;;;;7.60;5.60;;;;;;;15.11;84.10;101148.39;106941;1251;71538;-54
2023/06/11 02:15:02;;;;;;;9.40;5.80;;;;;;;15.07;83.99;101145.45;107507;1250;61263;-57
2023/06/11 02:17:28;;;;;;;7.80;5.70;;;;;;;15.04;83.88;101149.04;107183;1251;61240;-54
2023/06/11 02:19:55;;;;;;;8.80;5.80;;;;;;;15.01;83.84;101151.40;107037;1251;61269;-53
2023/06/11 02:22:21;;;;;;;10.00;5.60;;;;;;;14.99;83.91;101152.41;107559;1250;61257;-54
2023/06/11 02:24:48;;;;;;;8.60;5.20;;;;;;;14.96;83.97;101154.20;107111;1251;72690;-54
2023/06/11 02:27:15;;;;;;;9.90;5.80;;;;;;;14.93;84.04;101154.17;106942;1251;60554;-52
2023/06/11 02:29:41;;;;;;;8.60;5.20;;;;;;;14.90;84.09;101149.02;106889;1251;61253;-57
2023/06/11 02:32:08;;;;;;;11.20;5.40;;;;;;;14.87;84.08;101146.68;106981;1254;61228;-56
2023/06/11 02:34:35;;;;;;;8.40;5.40;;;;;;;14.85;84.18;101142.02;107499;1250;69983;-54
2023/06/11 02:37:01;;;;;;;8.30;5.40;;;;;;;14.83;84.21;101145.86;107722;1250;59529;-55
2023/06/11 02:39:27;;;;;;;8.00;4.90;;;;;;;14.80;84.11;101146.86;107141;1250;62328;-55
2023/06/11 02:41:54;;;;;;;7.80;5.00;;;;;;;14.80;84.22;101144.31;106844;1253;61397;-53
2023/06/11 02:44:21;;;;;;;8.30;5.20;;;;;;;14.77;84.23;101143.90;106967;1251;61212;-54
2023/06/11 02:46:47;;;;;;;8.60;5.10;;;;;;;14.76;84.03;101146.61;107032;1250;70031;-54
2023/06/11 02:49:14;;;;;;;8.30;4.90;;;;;;;14.73;83.99;101148.27;107413;1251;61236;-52
2023/06/11 02:51:40;;;;;;;9.40;4.90;;;;;;;14.72;83.94;101145.67;106981;1250;61256;-56
2023/06/11 02:54:07;;;;;;;7.00;4.70;;;;;;;14.70;83.72;101145.86;107590;1252;61212;-55
2023/06/11 02:56:34;;;;;;;7.30;4.70;;;;;;;14.68;83.82;101148.73;107031;1250;61119;-49
2023/06/11 02:59:00;;;;;;;9.00;4.80;;;;;;;14.66;83.64;101148.02;107587;1250;61237;-51
2023/06/11 03:01:27;;;;;;;8.70;4.50;;;;;;;14.64;83.58;101148.86;107550;1250;61231;-51
2023/06/11 03:03:53;;;;;;;7.10;4.20;;;;;;;14.63;83.59;101151.52;106919;1251;62374;-54
2023/06/11 03:06:20;;;;;;;10.50;4.60;;;;;;;14.61;83.55;101155.85;107047;1250;59346;-54
2023/06/11 03:08:46;;;;;;;7.50;4.80;;;;;;;14.60;83.57;101158.26;107138;1250;61346;-55
2023/06/11 03:11:14;;;;;;;8.30;4.40;;;;;;;14.59;83.52;101165.11;107715;1250;61734;-50
2023/06/11 03:13:40;;;;;;;7.80;4.50;;;;;;;14.59;83.40;101161.61;106790;1251;71985;-52
2023/06/11 03:16:07;;;;;;;8.20;4.60;;;;;;;14.58;83.57;101162.64;107969;1252;61341;-51
2023/06/11 03:18:33;;;;;;;10.60;4.60;;;;;;;14.57;83.52;101163.61;106951;1252;59372;-57
2023/06/11 03:21:00;;;;;;;9.00;4.20;;;;;;;14.57;83.49;101163.95;106812;1251;61273;-55
2023/06/11 03:23:26;;;;;;;8.10;4.40;;;;;;;14.55;83.18;101159.55;106969;1250;61601;-57
2023/06/11 03:25:53;;;;;;;7.10;4.70;;;;;;;14.57;83.40;101163.81;107050;1251;61248;-52
2023/06/11 03:28:19;;;;;;;7.60;4.20;;;;;;;14.57;83.44;101162.55;107808;1250;61101;-56
2023/06/11 03:30:46;;;;;;;8.70;4.50;;;;;;;14.57;83.33;101170.71;107323;1250;60582;-55
2023/06/11 03:33:13;;;;;;;8.60;4.10;;;;;;;14.59;83.29;101169.63;107081;1251;61119;-55
2023/06/11 03:35:39;;;;;;;7.40;4.30;;;;;;;14.60;83.33;101170.13;107379;1255;61150;-53
2023/06/11 03:38:07;;;;;;;9.20;4.20;;;;;;;14.63;83.31;101166.83;107115;1253;61754;-54
2023/06/11 03:40:34;;;;;;;8.00;4.30;;;;;;;14.65;83.33;101167.10;107320;1253;62149;-55
2023/06/11 03:43:00;;;;;;;6.50;4.10;;;;;;;14.67;82.90;101167.04;107483;1251;62324;-55
2023/06/11 03:45:27;;;;;;;7.00;5.10;;;;;;;14.69;82.92;101169.27;107700;1250;61219;-55
2023/06/11 03:47:56;;;;;;;5.80;3.90;;;;;;;14.72;82.57;101172.84;106916;1250;70048;-53
2023/06/11 03:50:23;;;;;;;9.90;4.00;;;;;;;14.76;82.58;101170.44;106934;1251;71106;-53
2023/06/11 03:52:50;;;;;;;8.50;4.00;;;;;;;14.77;82.35;101172.55;107373;1251;61992;-55
2023/06/11 03:55:16;;;;;;;6.30;3.90;;;;;;;14.79;82.09;101173.35;107788;1251;61234;-57
2023/06/11 03:57:43;;;;;;;8.30;4.40;;;;;;;14.81;82.18;101171.52;107120;1253;60337;-56
2023/06/11 04:00:11;;;;;;;6.90;4.00;;;;;;;14.84;82.05;101172.81;107035;1250;72272;-54
2023/06/11 04:02:37;;;;;;;7.00;4.10;;;;;;;14.86;81.76;101171.41;107573;1251;71412;-54
2023/06/11 04:05:04;;;;;;;7.90;3.60;;;;;;;14.90;81.61;101173.50;107163;1251;62661;-55
2023/06/11 04:07:30;;;;;;;7.50;3.80;;;;;;;14.93;81.63;101174.70;107104;1250;61612;-57
2023/06/11 04:09:57;;;;;;;7.90;3.80;;;;;;;14.97;81.42;101177.02;107050;1250;61276;-51
2023/06/11 04:12:25;;;;;;;7.50;3.90;;;;;;;15.01;81.35;101178.45;107586;1250;61279;-53
2023/06/11 04:14:52;;;;;;;7.60;4.30;;;;;;;15.06;81.03;101177.83;107113;1250;71424;-52
2023/06/11 04:17:18;;;;;;;10.90;4.20;;;;;;;15.10;81.18;101175.93;107211;1250;61204;-49
2023/06/11 04:19:45;;;;;;;6.90;3.40;;;;;;;15.18;80.89;101178.18;107375;1250;61237;-55
2023/06/11 04:22:11;;;;;;;6.60;3.60;;;;;;;15.23;80.59;101180.39;106895;1251;61237;-56
2023/06/11 04:24:38;;;;;;;7.80;3.70;;;;;;;15.29;80.33;101180.16;107112;1250;61202;-54
2023/06/11 04:27:06;;;;;;;7.10;3.60;;;;;;;15.34;80.09;101178.66;107114;1253;61435;-55
2023/06/11 04:29:33;;;;;;;7.50;3.90;;;;;;;15.39;79.85;101181.70;106992;1250;61295;-56
2023/06/11 04:32:03;;;;;;;8.80;3.80;;;;;;;15.45;79.72;101186.86;107580;1250;61251;-52
2023/06/11 04:34:30;;;;;;;8.70;3.80;;;;;;;15.51;79.63;101182.89;107025;1254;74250;-59
2023/06/11 04:36:56;;;;;;;8.40;3.90;;;;;;;15.57;79.54;101183.73;106990;1250;70955;-54
2023/06/11 04:39:23;;;;;;;10.40;3.60;;;;;;;15.64;79.41;101183.30;107627;1250;72694;-55
2023/06/11 04:41:51;;;;;;;8.80;3.50;;;;;;;15.71;79.29;101181.73;106815;1250;61940;-53
2023/06/11 04:44:20;;;;;;;6.40;3.90;;;;;;;15.78;79.16;101185.20;106632;1251;61229;-55
2023/06/11 04:46:47;;;;;;;7.50;3.70;;;;;;;15.85;79.04;101183.55;107112;1250;73797;-55
2023/06/11 04:49:20;;;;;;;6.60;4.20;;;;;;;15.92;78.70;101182.79;107523;1250;71066;-53
2023/06/11 04:51:48;;;;;;;7.70;3.90;;;;;;;15.99;78.46;101176.73;107502;1250;73962;-54
2023/06/11 04:54:17;;;;;;;6.30;3.70;;;;;;;16.05;78.05;101173.64;107064;1250;61701;-59
2023/06/11 04:56:44;;;;;;;7.10;3.60;;;;;;;16.13;77.79;101176.27;107692;1251;61350;-57
2023/06/11 04:59:10;;;;;;;6.20;3.50;;;;;;;16.18;77.61;101176.38;107249;1250;74706;-57
2023/06/11 05:01:46;;;;;;;7.50;3.90;;;;;;;16.27;77.60;101170.80;106924;1253;69908;-54
2023/06/11 05:04:14;;;;;;;6.20;3.80;;;;;;;16.35;77.33;101168.52;106780;1251;71416;-52
2023/06/11 05:06:47;;;;;;;6.50;3.70;;;;;;;16.42;76.99;101167.23;107951;1251;62344;-51
2023/06/11 05:09:13;;;;;;;7.40;3.50;;;;;;;16.52;76.72;101167.00;106995;1250;61257;-55
2023/06/11 05:11:42;;;;;;;9.20;3.90;;;;;;;16.60;76.37;101168.79;107500;1250;73516;-55
2023/06/11 05:14:12;;;;;;;9.50;4.10;;;;;;;16.69;76.14;101167.80;107463;1254;69262;-55
2023/06/11 05:16:39;;;;;;;8.10;3.70;;;;;;;16.80;76.04;101172.58;107426;1253;71506;-52
2023/06/11 05:19:06;;;;;;;7.30;3.60;;;;;;;16.92;75.69;101174.34;107081;1251;61126;-53
2023/06/11 05:21:33;;;;;;;7.30;3.80;;;;;;;17.06;75.47;101175.25;107118;1251;61276;-55
2023/06/11 05:24:07;;;;;;;7.10;3.80;;;;;;;17.18;75.10;101178.43;107348;1250;74728;-50
2023/06/11 05:26:34;;;;;;;9.00;3.90;;;;;;;17.33;74.76;101176.65;107535;1251;70087;-51
2023/06/11 05:29:03;;;;;;;8.00;3.60;;;;;;;17.46;74.34;101173.55;107886;1250;71445;-52
2023/06/11 05:31:29;;;;;;;5.40;3.90;;;;;;;17.61;73.87;101172.85;107153;1250;61122;-52
2023/06/11 05:33:56;;;;;;;8.60;3.90;;;;;;;17.74;73.31;101172.28;107054;1250;61246;-56
2023/06/11 05:36:23;;;;;;;8.90;3.80;;;;;;;17.86;72.74;101173.44;106961;1250;74668;-55
2023/06/11 05:38:51;;;;;;;10.70;4.20;;;;;;;17.97;72.03;101170.75;107207;1250;61215;-56
2023/06/11 05:41:19;;;;;;;7.00;3.80;;;;;;;18.08;71.71;101177.98;107195;1250;71472;-57
2023/06/11 05:43:46;;;;;;;10.60;4.80;;;;;;;18.19;71.34;101181.16;106802;1251;61356;-54
2023/06/11 05:46:13;;;;;;;8.60;4.70;;;;;;;18.31;71.19;101179.66;107905;1250;59813;-57
2023/06/11 05:48:41;;;;;;;10.00;6.40;;;;;;;18.45;70.65;101183.80;107435;1250;74719;-56
2023/06/11 05:51:08;;;;;;;9.50;4.50;;;;;;;18.57;70.16;101185.71;107065;1251;71155;-57
2023/06/11 05:53:34;;;;;;;9.10;4.20;;;;;;;18.68;69.45;101185.70;107116;1254;61324;-59
2023/06/11 05:56:03;;;;;;;8.30;4.40;;;;;;;18.78;68.94;101186.41;106865;1253;62019;-56
2023/06/11 05:58:32;;;;;;;7.30;4.20;;;;;;;18.90;68.59;101186.81;107148;1251;61414;-56
2023/06/11 06:01:03;;;;;;;7.90;4.00;;;;;;;19.00;68.09;101188.59;107265;1250;73477;-54
2023/06/11 06:03:31;;;;;;;9.60;4.40;;;;;;;19.10;67.74;101190.45;107362;1254;71272;-55
2023/06/11 06:06:00;;;;;;;9.10;4.10;;;;;;;19.20;66.91;101190.00;107748;1250;72674;-55
2023/06/11 06:08:30;;;;;;;8.30;4.30;;;;;;;19.27;66.37;101194.00;107037;1253;62016;-59
2023/06/11 06:10:57;;;;;;;8.90;4.60;;;;;;;19.37;66.45;101197.46;107241;1251;61240;-52
2023/06/11 06:13:25;;;;;;;10.00;4.20;;;;;;;19.46;66.01;101196.80;107089;1251;74567;-54
2023/06/11 06:15:52;;;;;;;8.90;4.20;;;;;;;19.57;65.77;101197.44;107208;1253;70475;-52
2023/06/11 06:18:20;;;;;;;6.20;4.30;;;;;;;19.69;65.34;101199.32;107358;1250;73178;-50
2023/06/11 06:20:47;;;;;;;8.60;4.50;;;;;;;19.77;64.76;101196.31;107326;1250;61824;-53
2023/06/11 06:23:13;;;;;;;8.70;5.00;;;;;;;19.88;64.50;101199.09;107916;1251;61822;-51
2023/06/11 06:25:41;;;;;;;6.80;4.20;;;;;;;19.99;64.42;101197.76;107724;1252;61350;-53
2023/06/11 06:28:08;;;;;;;7.00;4.40;;;;;;;20.12;64.09;101194.79;107451;1250;71192;-53
2023/06/11 06:30:35;;;;;;;7.40;4.70;;;;;;;20.25;63.72;101196.42;107227;1253;72373;-52
2023/06/11 06:33:01;;;;;;;8.00;5.00;;;;;;;20.36;62.74;101195.61;107349;1253;61205;-53
2023/06/11 06:35:32;;;;;;;7.10;4.60;;;;;;;20.46;62.13;101196.30;107474;1250;61235;-52
2023/06/11 06:37:59;;;;;;;8.40;4.70;;;;;;;20.57;62.17;101194.30;107837;1252;72835;-53
2023/06/11 06:40:26;;;;;;;8.20;5.00;;;;;;;20.72;61.66;101193.48;107520;1252;70426;-52
2023/06/11 06:42:53;;;;;;;17.70;12.60;;;;;;;20.86;60.85;101187.77;108132;1250;72258;-55
2023/06/11 06:45:19;;;;;;;44.50;34.00;;;;;;;20.97;60.09;101190.43;108247;1250;61272;-53
2023/06/11 06:47:46;;;;;;;12.30;7.60;;;;;;;21.06;59.86;101193.83;107464;1250;61337;-57
2023/06/11 06:50:12;;;;;;;41.60;30.00;;;;;;;21.16;59.40;101196.65;107845;1250;75864;-55
2023/06/11 06:52:39;;;;;;;17.90;14.80;;;;;;;21.25;58.89;101191.35;107968;1251;71652;-56
2023/06/11 06:55:06;;;;;;;8.90;5.00;;;;;;;21.33;58.53;101195.37;107535;1251;61499;-50
2023/06/11 06:57:33;;;;;;;8.30;5.00;;;;;;;21.41;58.03;101200.86;106981;1250;60401;-53
2023/06/11 06:59:59;;;;;;;9.80;5.20;;;;;;;21.50;57.50;101198.83;107251;1250;61619;-54
2023/06/11 07:02:26;;;;;;;16.60;5.20;;;;;;;21.60;57.53;101201.42;107465;1253;61765;-56
2023/06/11 07:04:52;;;;;;;11.60;5.10;;;;;;;21.72;57.25;101201.09;107208;1251;71140;-56
2023/06/11 07:07:19;;;;;;;8.00;5.00;;;;;;;21.82;56.42;101193.95;106707;1251;72688;-60
2023/06/11 07:09:45;;;;;;;8.70;4.80;;;;;;;21.91;56.78;101195.50;106775;1250;61324;-55
2023/06/11 07:12:12;;;;;;;8.10;5.00;;;;;;;22.04;56.65;101196.85;106790;1254;61237;-57
2023/06/11 07:14:38;;;;;;;7.20;4.50;;;;;;;22.14;55.62;101202.28;107177;1250;61893;-55
2023/06/11 07:17:05;;;;;;;7.80;5.10;;;;;;;22.23;55.17;101203.95;107689;1251;61266;-55
2023/06/11 07:19:32;;;;;;;8.30;4.60;;;;;;;22.35;55.36;101203.59;108285;1250;59948;-53
2023/06/11 07:21:59;;;;;;;8.00;5.10;;;;;;;22.49;55.06;101200.29;108101;1250;61353;-54
2023/06/11 07:24:25;;;;;;;8.70;5.20;;;;;;;22.61;54.33;101202.52;107257;1254;59219;-54
2023/06/11 07:26:52;;;;;;;9.00;4.90;;;;;;;22.69;53.76;101203.74;107749;1253;75181;-53
2023/06/11 07:29:18;;;;;;;8.50;4.70;;;;;;;22.77;53.73;101200.95;107453;1254;61254;-52
2023/06/11 07:31:44;;;;;;;9.40;5.40;;;;;;;22.90;53.37;101203.59;106772;1253;61305;-54
2023/06/11 07:34:12;;;;;;;6.50;5.10;;;;;;;22.99;52.86;101204.95;106852;1254;61295;-55
2023/06/11 07:36:39;;;;;;;7.50;4.60;;;;;;;23.03;52.15;101202.55;106774;1251;61215;-56
2023/06/11 07:39:05;;;;;;;9.70;4.80;;;;;;;23.09;52.06;101202.98;107480;1250;61733;-53
2023/06/11 07:41:32;;;;;;;8.20;5.00;;;;;;;23.17;51.94;101204.08;106830;1251;61149;-56
2023/06/11 07:43:59;;;;;;;8.60;5.20;;;;;;;23.22;51.92;101205.13;106861;1251;70979;-56
2023/06/11 07:46:26;;;;;;;8.80;4.50;;;;;;;23.26;51.82;101203.19;106902;1253;61241;-53
2023/06/11 07:48:55;;;;;;;7.30;4.60;;;;;;;23.35;51.64;101207.38;106738;1253;61104;-55
2023/06/11 07:51:23;;;;;;;5.90;4.10;;;;;;;23.47;51.52;101207.56;106710;1250;73754;-51
2023/06/11 07:53:50;;;;;;;7.90;4.60;;;;;;;23.58;51.37;101210.59;106655;1253;71205;-54
2023/06/11 07:56:17;;;;;;;6.50;4.40;;;;;;;23.67;50.08;101210.77;107935;1250;71653;-59
2023/06/11 07:58:43;;;;;;;7.60;4.60;;;;;;;23.75;50.67;101213.38;107124;1251;61890;-56
2023/06/11 08:01:10;;;;;;;6.50;4.30;;;;;;;23.85;50.82;101216.35;106874;1254;61317;-53
2023/06/11 08:03:36;;;;;;;6.50;4.20;;;;;;;24.01;51.06;101213.46;106825;1253;59237;-54
2023/06/11 08:06:03;;;;;;;8.90;4.30;;;;;;;24.14;50.24;101209.33;107073;1250;61278;-55
2023/06/11 08:08:29;;;;;;;8.80;4.40;;;;;;;24.23;48.45;101205.98;106800;1252;71347;-55
2023/06/11 08:10:56;;;;;;;10.40;4.30;;;;;;;24.31;49.10;101206.45;106833;1250;59393;-58
2023/06/11 08:13:23;;;;;;;8.50;4.60;;;;;;;24.45;49.06;101208.77;106939;1251;61107;-55
2023/06/11 08:15:49;;;;;;;7.00;4.10;;;;;;;24.54;48.05;101208.02;107169;1252;73727;-61
2023/06/11 08:18:16;;;;;;;6.30;4.50;;;;;;;24.62;47.52;101199.70;106783;1254;61241;-60
2023/06/11 08:20:46;;;;;;;7.40;4.10;;;;;;;24.73;47.78;101197.56;106778;1255;72176;-55
2023/06/11 08:23:12;;;;;;;9.20;4.70;;;;;;;24.85;47.69;101198.59;106839;1253;61285;-57
2023/06/11 08:25:39;;;;;;;5.70;4.20;;;;;;;24.98;47.35;101199.79;106767;1250;61217;-56
2023/06/11 08:28:06;;;;;;;8.40;4.60;;;;;;;25.09;46.94;101199.65;106758;1250;74988;-55
2023/06/11 08:30:36;;;;;;;6.70;4.00;;;;;;;25.21;46.29;101200.84;107257;1250;69995;-55
2023/06/11 08:33:02;;;;;;;8.10;4.00;;;;;;;25.34;46.06;101200.08;106910;1252;61326;-56
2023/06/11 08:35:29;;;;;;;6.30;3.70;;;;;;;25.46;46.14;101199.23;106695;1253;61765;-55
2023/06/11 08:37:56;;;;;;;8.70;4.10;;;;;;;25.57;45.45;101198.87;106534;1253;61161;-56
2023/06/11 08:40:23;;;;;;;8.00;4.10;;;;;;;25.69;44.64;101201.21;108158;1251;73453;-59
2023/06/11 08:42:50;;;;;;;7.40;4.00;;;;;;;25.83;44.15;101206.17;107838;1253;70132;-61
2023/06/11 08:45:17;;;;;;;9.30;4.00;;;;;;;25.95;43.65;101202.23;108875;1252;72675;-53
2023/06/11 08:47:50;;;;;;;9.40;4.20;;;;;;;26.08;43.84;101201.89;108837;1253;59251;-55
2023/06/11 08:50:21;;;;;;;6.30;3.60;;;;;;;26.22;43.67;101206.19;109135;1250;59126;-56
2023/06/11 08:52:54;;;;;;;8.40;4.10;;;;;;;26.36;42.46;101206.17;107663;1250;73935;-57
2023/06/11 08:55:21;;;;;;;7.30;4.20;;;;;;;26.44;41.54;101201.66;107190;1253;69956;-54
2023/06/11 08:57:50;;;;;;;6.40;3.90;;;;;;;26.52;41.43;101204.89;107018;1253;71968;-56
2023/06/11 09:00:17;;;;;;;6.00;4.10;;;;;;;26.62;41.65;101202.11;107030;1255;61244;-58
2023/06/11 09:02:44;;;;;;;6.60;4.10;;;;;;;26.75;40.92;101200.11;107172;1256;61705;-54
2023/06/11 09:05:11;;;;;;;8.10;3.60;;;;;;;26.83;40.39;101194.08;107167;1251;73624;-51
2023/06/11 09:07:47;;;;;;;6.00;3.80;;;;;;;26.92;39.95;101193.52;107439;1250;70134;-56
2023/06/11 09:10:14;;;;;;;5.90;3.80;;;;;;;26.99;39.66;101190.48;107788;1251;71480;-54
2023/06/11 09:12:41;;;;;;;5.90;3.80;;;;;;;27.05;39.51;101191.89;106844;1250;61257;-54
2023/06/11 09:15:09;;;;;;;6.00;3.70;;;;;;;27.08;39.14;101195.75;107460;1253;61145;-55
2023/06/11 09:17:37;;;;;;;6.90;3.80;;;;;;;27.16;39.05;101197.43;108442;1250;74582;-53
2023/06/11 09:20:14;;;;;;;4.10;3.50;;;;;;;27.24;38.65;101193.15;107881;1250;71169;-58
2023/06/11 09:22:43;;;;;;;6.60;3.90;;;;;;;27.33;38.69;101196.45;108470;1250;72742;-51
2023/06/11 09:25:16;;;;;;;9.60;3.90;;;;;;;27.36;38.62;101192.80;108308;1250;61319;-52
2023/06/11 09:27:50;;;;;;;9.00;4.00;;;;;;;27.43;38.64;101192.67;108086;1250;59696;-53
2023/06/11 09:30:18;;;;;;;7.70;3.70;;;;;;;27.49;38.18;101191.20;107401;1250;75137;-54
2023/06/11 09:32:48;;;;;;;8.10;3.80;;;;;;;27.49;37.90;101189.06;107018;1251;71566;-52
2023/06/11 09:35:16;;;;;;;5.90;3.60;;;;;;;27.51;37.51;101188.14;107162;1251;71337;-54
2023/06/11 09:37:52;;;;;;;7.20;3.70;;;;;;;27.52;37.53;101187.05;107295;1250;61291;-50
2023/06/11 09:40:24;;;;;;;5.40;3.70;;;;;;;27.57;37.57;101190.19;107266;1251;61248;-54
2023/06/11 09:42:51;;;;;;;6.70;3.40;;;;;;;27.65;37.67;101191.15;106962;1256;74016;-56
2023/06/11 09:45:19;;;;;;;5.90;3.30;;;;;;;27.73;37.29;101191.11;108218;1254;61244;-52
2023/06/11 09:47:46;;;;;;;7.00;3.50;;;;;;;27.79;36.82;101189.40;107234;1250;71574;-53
2023/06/11 09:50:16;;;;;;;5.80;3.50;;;;;;;27.88;36.45;101194.30;107006;1250;61187;-57
2023/06/11 09:52:44;;;;;;;5.60;3.40;;;;;;;27.93;35.17;101189.75;107121;1251;61240;-53
2023/06/11 09:55:12;;;;;;;5.30;3.50;;;;;;;27.95;35.49;101187.36;107069;1250;74411;-51
2023/06/11 09:57:40;;;;;;;6.30;3.30;;;;;;;28.08;35.83;101189.58;107060;1253;70975;-55
2023/06/11 10:00:12;;;;;;;7.70;3.30;;;;;;;28.23;33.67;101187.20;106935;1250;71466;-52
2023/06/11 10:02:41;;;;;;;7.00;3.40;;;;;;;28.28;31.64;101185.66;107598;1252;61234;-51
2023/06/11 10:05:10;;;;;;;4.70;3.00;;;;;;;28.35;32.26;101184.95;107524;1253;61232;-56
2023/06/11 10:07:55;;;;;;;7.70;3.20;;;;;;;28.47;34.02;101187.12;107207;1252;74839;-55
2023/06/11 10:10:23;;;;;;;8.00;3.20;;;;;;;28.58;34.14;101187.89;106898;1255;70040;-56
2023/06/11 10:12:51;;;;;;;5.70;3.30;;;;;;;28.67;33.47;101192.79;106712;1250;73524;-53
2023/06/11 10:15:21;;;;;;;5.50;2.90;;;;;;;28.71;32.66;101193.70;107110;1253;61241;-53
2023/06/11 10:17:50;;;;;;;3.70;2.80;;;;;;;28.76;33.18;101198.56;107148;1250;61870;-53
2023/06/11 10:20:37;;;;;;;7.80;3.90;;;;;;;28.80;31.69;101195.84;107347;1250;74678;-51
2023/06/11 10:23:11;;;;;;;5.10;3.50;;;;;;;28.81;31.00;101189.17;108160;1250;71668;-51
2023/06/11 10:25:41;;;;;;;6.20;3.00;;;;;;;28.85;31.14;101190.90;106982;1255;72671;-53
2023/06/11 10:28:13;;;;;;;7.10;3.20;;;;;;;28.93;30.64;101193.90;107088;1252;61118;-54
2023/06/11 10:30:52;;;;;;;7.00;3.10;;;;;;;29.03;29.97;101186.09;107078;1250;61155;-50
2023/06/11 10:33:19;;;;;;;10.50;3.00;;;;;;;29.07;29.26;101193.10;107196;1256;73491;-54
2023/06/11 10:35:47;;;;;;;13.10;3.00;;;;;;;29.11;28.65;101189.77;107208;1250;71173;-54
2023/06/11 10:38:16;;;;;;;6.60;2.90;;;;;;;29.18;29.16;101192.86;107116;1253;62298;-54
2023/06/11 10:40:42;;;;;;;11.80;3.30;;;;;;;29.25;28.97;101193.13;107882;1252;61393;-51
2023/06/11 10:43:19;;;;;;;6.70;2.90;;;;;;;29.34;29.81;101189.53;107317;1251;61228;-55
2023/06/11 10:45:45;;;;;;;4.50;2.80;;;;;;;29.43;28.74;101190.27;106947;1255;75248;-53
2023/06/11 10:48:27;;;;;;;4.50;3.00;;;;;;;29.48;28.60;101189.98;107036;1253;71019;-55
2023/06/11 10:51:03;;;;;;;5.30;3.30;;;;;;;29.55;28.06;101199.70;107067;1250;72822;-57
2023/06/11 10:53:40;;;;;;;7.80;2.60;;;;;;;29.59;27.77;101194.90;106901;1252;61208;-56
2023/06/11 10:56:09;;;;;;;6.00;2.90;;;;;;;29.64;27.52;101192.59;107330;1254;62836;-52
2023/06/11 10:58:36;;;;;;;5.10;2.80;;;;;;;29.69;27.85;101194.80;108065;1250;73489;-55
2023/06/11 11:01:06;;;;;;;4.60;2.70;;;;;;;29.77;27.93;101190.99;107183;1256;70423;-50
2023/06/11 11:03:34;;;;;;;5.10;2.50;;;;;;;29.88;27.97;101193.11;107035;1251;72761;-56
2023/06/11 11:06:02;;;;;;;4.10;2.60;;;;;;;29.98;27.59;101192.98;107193;1250;61308;-54
2023/06/11 11:08:28;;;;;;;6.40;2.60;;;;;;;30.04;26.65;101194.15;106895;1256;61215;-54
2023/06/11 11:10:59;;;;;;;5.10;2.70;;;;;;;30.08;26.02;101192.29;106711;1251;73288;-53
2023/06/11 11:13:27;;;;;;;5.20;2.50;;;;;;;30.10;25.92;101188.98;107246;1253;69947;-54
2023/06/11 11:15:54;;;;;;;4.50;2.50;;;;;;;30.16;26.16;101186.83;107468;1256;72776;-55
2023/06/11 11:18:22;;;;;;;6.60;2.60;;;;;;;30.16;25.73;101181.68;107214;1250;61345;-52
2023/06/11 11:20:52;;;;;;;4.30;2.60;;;;;;;30.14;25.97;101179.68;106902;1250;61218;-55